sensor_id;sensor_type;location;lat;lon;timestamp;P1;durP1;ratioP1;P2;durP2;ratioP2
19026;SDS011;9646;52.034;5.554;2024-03-07T00:02:18;18.42;;;12.52;;
19026;SDS011;9646;52.034;5.554;2024-03-07T00:04:45;18.98;;;14.18;;
19026;SDS011;9646;52.034;5.554;2024-03-07T00:07:15;21.52;;;13.63;;
19026;SDS011;9646;52.034;5.554;2024-03-07T00:09:43;20.42;;;14.27;;
19026;SDS011;9646;52.034;5.554;2024-03-07T00:12:11;21.80;;;13.27;;
19026;SDS011;9646;52.034;5.554;2024-03-07T00:14:39;19.45;;;14.02;;
19026;SDS011;9646;52.034;5.554;2024-03-07T00:17:06;23.35;;;14.10;;
19026;SDS011;9646;52.034;5.554;2024-03-07T00:19:34;18.92;;;13.80;;
19026;SDS011;9646;52.034;5.554;2024-03-07T00:22:01;18.75;;;13.00;;
19026;SDS011;9646;52.034;5.554;2024-03-07T00:24:30;19.55;;;12.70;;
19026;SDS011;9646;52.034;5.554;2024-03-07T00:26:57;20.45;;;13.55;;
19026;SDS011;9646;52.034;5.554;2024-03-07T00:29:24;17.33;;;12.27;;
19026;SDS011;9646;52.034;5.554;2024-03-07T00:31:53;18.20;;;12.63;;
19026;SDS011;9646;52.034;5.554;2024-03-07T00:34:20;18.95;;;13.18;;
19026;SDS011;9646;52.034;5.554;2024-03-07T00:36:48;19.33;;;12.32;;
19026;SDS011;9646;52.034;5.554;2024-03-07T00:39:17;20.80;;;13.70;;
19026;SDS011;9646;52.034;5.554;2024-03-07T00:41:46;20.55;;;12.68;;
19026;SDS011;9646;52.034;5.554;2024-03-07T00:44:13;19.75;;;13.63;;
19026;SDS011;9646;52.034;5.554;2024-03-07T00:46:41;20.45;;;12.80;;
19026;SDS011;9646;52.034;5.554;2024-03-07T00:49:08;20.75;;;14.23;;
19026;SDS011;9646;52.034;5.554;2024-03-07T00:51:36;22.10;;;13.00;;
19026;SDS011;9646;52.034;5.554;2024-03-07T00:54:04;19.60;;;12.95;;
19026;SDS011;9646;52.034;5.554;2024-03-07T00:56:32;19.30;;;12.63;;
19026;SDS011;9646;52.034;5.554;2024-03-07T00:59:03;21.20;;;13.52;;
19026;SDS011;9646;52.034;5.554;2024-03-07T01:01:31;17.80;;;12.95;;
19026;SDS011;9646;52.034;5.554;2024-03-07T01:04:01;19.90;;;13.40;;
19026;SDS011;9646;52.034;5.554;2024-03-07T01:06:28;17.73;;;12.73;;
19026;SDS011;9646;52.034;5.554;2024-03-07T01:08:56;20.23;;;13.18;;
19026;SDS011;9646;52.034;5.554;2024-03-07T01:11:23;20.13;;;13.20;;
19026;SDS011;9646;52.034;5.554;2024-03-07T01:13:50;17.80;;;13.60;;
19026;SDS011;9646;52.034;5.554;2024-03-07T01:16:19;18.92;;;13.32;;
19026;SDS011;9646;52.034;5.554;2024-03-07T01:18:46;21.15;;;13.88;;
19026;SDS011;9646;52.034;5.554;2024-03-07T01:21:15;19.88;;;13.10;;
19026;SDS011;9646;52.034;5.554;2024-03-07T01:23:42;20.95;;;14.48;;
19026;SDS011;9646;52.034;5.554;2024-03-07T01:26:10;21.00;;;13.43;;
19026;SDS011;9646;52.034;5.554;2024-03-07T01:28:37;18.85;;;13.40;;
19026;SDS011;9646;52.034;5.554;2024-03-07T01:31:06;21.42;;;13.95;;
19026;SDS011;9646;52.034;5.554;2024-03-07T01:33:36;19.80;;;13.02;;
19026;SDS011;9646;52.034;5.554;2024-03-07T01:36:04;18.40;;;11.98;;
19026;SDS011;9646;52.034;5.554;2024-03-07T01:38:31;19.15;;;13.30;;
19026;SDS011;9646;52.034;5.554;2024-03-07T01:40:58;19.23;;;12.27;;
19026;SDS011;9646;52.034;5.554;2024-03-07T01:43:26;17.98;;;13.02;;
19026;SDS011;9646;52.034;5.554;2024-03-07T01:45:56;21.27;;;12.98;;
19026;SDS011;9646;52.034;5.554;2024-03-07T01:48:25;19.20;;;12.77;;
19026;SDS011;9646;52.034;5.554;2024-03-07T01:50:55;22.00;;;14.13;;
19026;SDS011;9646;52.034;5.554;2024-03-07T01:53:22;20.33;;;13.13;;
19026;SDS011;9646;52.034;5.554;2024-03-07T01:55:56;20.75;;;13.65;;
19026;SDS011;9646;52.034;5.554;2024-03-07T01:58:24;18.70;;;13.50;;
19026;SDS011;9646;52.034;5.554;2024-03-07T02:00:51;18.23;;;12.63;;
19026;SDS011;9646;52.034;5.554;2024-03-07T02:03:18;18.67;;;13.10;;
19026;SDS011;9646;52.034;5.554;2024-03-07T02:05:45;18.15;;;11.77;;
19026;SDS011;9646;52.034;5.554;2024-03-07T02:08:14;20.90;;;13.40;;
19026;SDS011;9646;52.034;5.554;2024-03-07T02:10:41;20.20;;;13.05;;
19026;SDS011;9646;52.034;5.554;2024-03-07T02:13:09;17.65;;;12.10;;
19026;SDS011;9646;52.034;5.554;2024-03-07T02:15:36;16.73;;;12.00;;
19026;SDS011;9646;52.034;5.554;2024-03-07T02:18:03;19.25;;;12.98;;
19026;SDS011;9646;52.034;5.554;2024-03-07T02:20:31;20.83;;;13.07;;
19026;SDS011;9646;52.034;5.554;2024-03-07T02:22:59;20.48;;;13.50;;
19026;SDS011;9646;52.034;5.554;2024-03-07T02:25:28;19.20;;;12.10;;
19026;SDS011;9646;52.034;5.554;2024-03-07T02:27:57;18.90;;;12.60;;
19026;SDS011;9646;52.034;5.554;2024-03-07T02:30:24;19.23;;;12.35;;
19026;SDS011;9646;52.034;5.554;2024-03-07T02:32:52;16.08;;;11.95;;
19026;SDS011;9646;52.034;5.554;2024-03-07T02:35:20;17.88;;;12.13;;
19026;SDS011;9646;52.034;5.554;2024-03-07T02:37:48;19.98;;;13.38;;
19026;SDS011;9646;52.034;5.554;2024-03-07T02:40:20;17.85;;;12.48;;
19026;SDS011;9646;52.034;5.554;2024-03-07T02:42:47;18.13;;;12.35;;
19026;SDS011;9646;52.034;5.554;2024-03-07T02:45:14;19.05;;;13.23;;
19026;SDS011;9646;52.034;5.554;2024-03-07T02:47:41;21.00;;;12.82;;
19026;SDS011;9646;52.034;5.554;2024-03-07T02:50:09;20.30;;;13.23;;
19026;SDS011;9646;52.034;5.554;2024-03-07T02:52:36;21.33;;;12.75;;
19026;SDS011;9646;52.034;5.554;2024-03-07T02:55:04;20.30;;;14.23;;
19026;SDS011;9646;52.034;5.554;2024-03-07T02:57:36;19.90;;;12.55;;
19026;SDS011;9646;52.034;5.554;2024-03-07T03:00:04;19.45;;;13.57;;
19026;SDS011;9646;52.034;5.554;2024-03-07T03:02:44;19.42;;;12.48;;
19026;SDS011;9646;52.034;5.554;2024-03-07T03:05:12;19.60;;;12.57;;
19026;SDS011;9646;52.034;5.554;2024-03-07T03:07:40;21.70;;;13.32;;
19026;SDS011;9646;52.034;5.554;2024-03-07T03:10:07;18.17;;;12.25;;
19026;SDS011;9646;52.034;5.554;2024-03-07T03:12:38;20.55;;;13.95;;
19026;SDS011;9646;52.034;5.554;2024-03-07T03:15:06;18.45;;;12.50;;
19026;SDS011;9646;52.034;5.554;2024-03-07T03:17:36;19.40;;;13.23;;
19026;SDS011;9646;52.034;5.554;2024-03-07T03:20:04;19.90;;;13.38;;
19026;SDS011;9646;52.034;5.554;2024-03-07T03:22:40;21.70;;;14.77;;
19026;SDS011;9646;52.034;5.554;2024-03-07T03:25:09;20.52;;;13.98;;
19026;SDS011;9646;52.034;5.554;2024-03-07T03:27:39;19.05;;;12.70;;
19026;SDS011;9646;52.034;5.554;2024-03-07T03:30:06;18.40;;;13.07;;
19026;SDS011;9646;52.034;5.554;2024-03-07T03:32:38;18.63;;;13.38;;
19026;SDS011;9646;52.034;5.554;2024-03-07T03:35:06;19.00;;;12.43;;
19026;SDS011;9646;52.034;5.554;2024-03-07T03:37:38;19.75;;;12.88;;
19026;SDS011;9646;52.034;5.554;2024-03-07T03:40:07;21.20;;;13.48;;
19026;SDS011;9646;52.034;5.554;2024-03-07T03:42:35;22.05;;;13.38;;
19026;SDS011;9646;52.034;5.554;2024-03-07T03:45:05;18.48;;;12.63;;
19026;SDS011;9646;52.034;5.554;2024-03-07T03:47:33;19.73;;;13.82;;
19026;SDS011;9646;52.034;5.554;2024-03-07T03:50:02;20.38;;;12.73;;
19026;SDS011;9646;52.034;5.554;2024-03-07T03:52:29;18.40;;;13.48;;
19026;SDS011;9646;52.034;5.554;2024-03-07T03:54:56;19.98;;;14.10;;
19026;SDS011;9646;52.034;5.554;2024-03-07T03:57:24;21.80;;;13.80;;
19026;SDS011;9646;52.034;5.554;2024-03-07T03:59:51;18.02;;;12.15;;
19026;SDS011;9646;52.034;5.554;2024-03-07T04:02:21;20.95;;;13.38;;
19026;SDS011;9646;52.034;5.554;2024-03-07T04:04:48;21.45;;;13.93;;
19026;SDS011;9646;52.034;5.554;2024-03-07T04:07:16;24.27;;;15.02;;
19026;SDS011;9646;52.034;5.554;2024-03-07T04:09:44;21.73;;;14.38;;
19026;SDS011;9646;52.034;5.554;2024-03-07T04:12:12;19.73;;;13.43;;
19026;SDS011;9646;52.034;5.554;2024-03-07T04:14:40;17.23;;;12.65;;
19026;SDS011;9646;52.034;5.554;2024-03-07T04:17:08;19.30;;;12.48;;
19026;SDS011;9646;52.034;5.554;2024-03-07T04:19:38;20.17;;;13.18;;
19026;SDS011;9646;52.034;5.554;2024-03-07T04:22:06;19.05;;;13.02;;
19026;SDS011;9646;52.034;5.554;2024-03-07T04:24:33;21.05;;;14.13;;
19026;SDS011;9646;52.034;5.554;2024-03-07T04:27:00;22.45;;;14.40;;
19026;SDS011;9646;52.034;5.554;2024-03-07T04:29:30;21.00;;;13.55;;
19026;SDS011;9646;52.034;5.554;2024-03-07T04:31:57;19.50;;;13.45;;
19026;SDS011;9646;52.034;5.554;2024-03-07T04:34:24;21.20;;;13.73;;
19026;SDS011;9646;52.034;5.554;2024-03-07T04:36:54;21.02;;;13.43;;
19026;SDS011;9646;52.034;5.554;2024-03-07T04:39:21;19.10;;;13.13;;
19026;SDS011;9646;52.034;5.554;2024-03-07T04:41:53;21.45;;;13.38;;
19026;SDS011;9646;52.034;5.554;2024-03-07T04:44:21;22.45;;;14.68;;
19026;SDS011;9646;52.034;5.554;2024-03-07T04:46:49;20.70;;;14.40;;
19026;SDS011;9646;52.034;5.554;2024-03-07T04:49:20;21.77;;;14.27;;
19026;SDS011;9646;52.034;5.554;2024-03-07T04:51:48;23.67;;;13.55;;
19026;SDS011;9646;52.034;5.554;2024-03-07T04:54:17;19.52;;;14.00;;
19026;SDS011;9646;52.034;5.554;2024-03-07T04:56:44;21.83;;;14.45;;
19026;SDS011;9646;52.034;5.554;2024-03-07T04:59:11;22.65;;;15.10;;
19026;SDS011;9646;52.034;5.554;2024-03-07T05:01:39;20.63;;;13.45;;
19026;SDS011;9646;52.034;5.554;2024-03-07T05:04:06;20.42;;;13.77;;
19026;SDS011;9646;52.034;5.554;2024-03-07T05:06:34;22.60;;;14.45;;
19026;SDS011;9646;52.034;5.554;2024-03-07T05:09:01;22.27;;;14.93;;
19026;SDS011;9646;52.034;5.554;2024-03-07T05:11:30;20.42;;;13.95;;
19026;SDS011;9646;52.034;5.554;2024-03-07T05:13:57;22.45;;;14.35;;
19026;SDS011;9646;52.034;5.554;2024-03-07T05:16:25;20.25;;;13.63;;
19026;SDS011;9646;52.034;5.554;2024-03-07T05:18:52;22.83;;;14.55;;
19026;SDS011;9646;52.034;5.554;2024-03-07T05:21:20;23.10;;;14.85;;
19026;SDS011;9646;52.034;5.554;2024-03-07T05:24:02;21.33;;;14.02;;
19026;SDS011;9646;52.034;5.554;2024-03-07T05:26:31;22.67;;;14.60;;
19026;SDS011;9646;52.034;5.554;2024-03-07T05:29:01;21.67;;;14.10;;
19026;SDS011;9646;52.034;5.554;2024-03-07T05:31:30;22.95;;;14.63;;
19026;SDS011;9646;52.034;5.554;2024-03-07T05:33:59;23.23;;;14.35;;
19026;SDS011;9646;52.034;5.554;2024-03-07T05:36:28;21.38;;;14.88;;
19026;SDS011;9646;52.034;5.554;2024-03-07T05:38:55;25.98;;;15.20;;
19026;SDS011;9646;52.034;5.554;2024-03-07T05:41:23;23.75;;;14.98;;
19026;SDS011;9646;52.034;5.554;2024-03-07T05:43:56;18.88;;;13.73;;
19026;SDS011;9646;52.034;5.554;2024-03-07T05:46:23;24.92;;;14.68;;
19026;SDS011;9646;52.034;5.554;2024-03-07T05:48:51;22.15;;;14.30;;
19026;SDS011;9646;52.034;5.554;2024-03-07T05:51:21;21.38;;;13.73;;
19026;SDS011;9646;52.034;5.554;2024-03-07T05:53:50;22.48;;;14.35;;
19026;SDS011;9646;52.034;5.554;2024-03-07T05:56:17;20.45;;;13.23;;
19026;SDS011;9646;52.034;5.554;2024-03-07T05:58:45;21.10;;;14.07;;
19026;SDS011;9646;52.034;5.554;2024-03-07T06:01:13;20.73;;;14.18;;
19026;SDS011;9646;52.034;5.554;2024-03-07T06:03:41;23.92;;;15.13;;
19026;SDS011;9646;52.034;5.554;2024-03-07T06:06:15;23.05;;;14.98;;
19026;SDS011;9646;52.034;5.554;2024-03-07T06:08:43;23.40;;;15.13;;
19026;SDS011;9646;52.034;5.554;2024-03-07T06:11:11;24.83;;;18.20;;
19026;SDS011;9646;52.034;5.554;2024-03-07T06:13:38;20.58;;;14.65;;
19026;SDS011;9646;52.034;5.554;2024-03-07T06:16:05;23.50;;;14.13;;
19026;SDS011;9646;52.034;5.554;2024-03-07T06:18:34;20.95;;;14.52;;
19026;SDS011;9646;52.034;5.554;2024-03-07T06:21:02;24.15;;;16.13;;
19026;SDS011;9646;52.034;5.554;2024-03-07T06:23:32;20.92;;;14.63;;
19026;SDS011;9646;52.034;5.554;2024-03-07T06:25:59;25.52;;;16.38;;
19026;SDS011;9646;52.034;5.554;2024-03-07T06:28:29;24.10;;;15.35;;
19026;SDS011;9646;52.034;5.554;2024-03-07T06:30:56;23.40;;;15.65;;
19026;SDS011;9646;52.034;5.554;2024-03-07T06:33:23;25.58;;;16.20;;
19026;SDS011;9646;52.034;5.554;2024-03-07T06:35:52;20.23;;;14.80;;
19026;SDS011;9646;52.034;5.554;2024-03-07T06:38:22;19.50;;;13.98;;
19026;SDS011;9646;52.034;5.554;2024-03-07T06:40:50;22.95;;;15.25;;
19026;SDS011;9646;52.034;5.554;2024-03-07T06:43:19;25.88;;;15.73;;
19026;SDS011;9646;52.034;5.554;2024-03-07T06:45:47;22.95;;;15.63;;
19026;SDS011;9646;52.034;5.554;2024-03-07T06:48:15;21.70;;;15.05;;
19026;SDS011;9646;52.034;5.554;2024-03-07T06:50:42;22.13;;;15.82;;
19026;SDS011;9646;52.034;5.554;2024-03-07T06:53:12;27.33;;;16.98;;
19026;SDS011;9646;52.034;5.554;2024-03-07T06:55:39;22.27;;;15.45;;
19026;SDS011;9646;52.034;5.554;2024-03-07T06:58:06;23.20;;;16.25;;
19026;SDS011;9646;52.034;5.554;2024-03-07T07:00:35;27.67;;;17.63;;
19026;SDS011;9646;52.034;5.554;2024-03-07T07:03:02;20.35;;;14.27;;
19026;SDS011;9646;52.034;5.554;2024-03-07T07:05:30;20.48;;;14.35;;
19026;SDS011;9646;52.034;5.554;2024-03-07T07:07:58;25.25;;;15.10;;
19026;SDS011;9646;52.034;5.554;2024-03-07T07:10:27;21.42;;;14.85;;
19026;SDS011;9646;52.034;5.554;2024-03-07T07:12:54;22.23;;;14.77;;
19026;SDS011;9646;52.034;5.554;2024-03-07T07:15:22;25.23;;;16.48;;
19026;SDS011;9646;52.034;5.554;2024-03-07T07:17:49;23.73;;;15.40;;
19026;SDS011;9646;52.034;5.554;2024-03-07T07:20:17;24.65;;;16.05;;
19026;SDS011;9646;52.034;5.554;2024-03-07T07:22:46;26.17;;;16.25;;
19026;SDS011;9646;52.034;5.554;2024-03-07T07:25:14;21.23;;;15.07;;
19026;SDS011;9646;52.034;5.554;2024-03-07T07:27:44;23.27;;;13.40;;
19026;SDS011;9646;52.034;5.554;2024-03-07T07:30:12;24.58;;;14.43;;
19026;SDS011;9646;52.034;5.554;2024-03-07T07:32:40;18.13;;;13.27;;
19026;SDS011;9646;52.034;5.554;2024-03-07T07:35:08;23.38;;;16.35;;
19026;SDS011;9646;52.034;5.554;2024-03-07T07:37:36;21.10;;;12.95;;
19026;SDS011;9646;52.034;5.554;2024-03-07T07:40:05;18.98;;;13.50;;
19026;SDS011;9646;52.034;5.554;2024-03-07T07:42:35;22.48;;;14.85;;
19026;SDS011;9646;52.034;5.554;2024-03-07T07:45:07;19.80;;;13.60;;
19026;SDS011;9646;52.034;5.554;2024-03-07T07:47:36;24.77;;;14.85;;
19026;SDS011;9646;52.034;5.554;2024-03-07T07:50:06;17.60;;;12.32;;
19026;SDS011;9646;52.034;5.554;2024-03-07T07:52:39;20.40;;;13.32;;
19026;SDS011;9646;52.034;5.554;2024-03-07T07:55:07;14.65;;;9.82;;
19026;SDS011;9646;52.034;5.554;2024-03-07T07:57:40;21.08;;;14.55;;
19026;SDS011;9646;52.034;5.554;2024-03-07T08:00:10;16.27;;;11.82;;
19026;SDS011;9646;52.034;5.554;2024-03-07T08:02:37;15.02;;;11.52;;
19026;SDS011;9646;52.034;5.554;2024-03-07T08:05:04;14.10;;;10.27;;
19026;SDS011;9646;52.034;5.554;2024-03-07T08:07:31;20.92;;;12.88;;
19026;SDS011;9646;52.034;5.554;2024-03-07T08:09:59;15.45;;;11.32;;
19026;SDS011;9646;52.034;5.554;2024-03-07T08:12:26;17.05;;;11.20;;
19026;SDS011;9646;52.034;5.554;2024-03-07T08:14:53;17.25;;;11.98;;
19026;SDS011;9646;52.034;5.554;2024-03-07T08:17:22;15.27;;;10.40;;
19026;SDS011;9646;52.034;5.554;2024-03-07T08:19:50;18.25;;;11.98;;
19026;SDS011;9646;52.034;5.554;2024-03-07T08:22:17;16.98;;;11.85;;
19026;SDS011;9646;52.034;5.554;2024-03-07T08:24:45;14.82;;;10.05;;
19026;SDS011;9646;52.034;5.554;2024-03-07T08:27:12;16.23;;;10.38;;
19026;SDS011;9646;52.034;5.554;2024-03-07T08:29:40;16.80;;;11.40;;
19026;SDS011;9646;52.034;5.554;2024-03-07T08:32:07;14.20;;;10.25;;
19026;SDS011;9646;52.034;5.554;2024-03-07T08:34:35;12.55;;;9.55;;
19026;SDS011;9646;52.034;5.554;2024-03-07T08:37:03;17.35;;;11.73;;
19026;SDS011;9646;52.034;5.554;2024-03-07T08:39:30;12.38;;;9.75;;
19026;SDS011;9646;52.034;5.554;2024-03-07T08:41:57;14.93;;;11.02;;
19026;SDS011;9646;52.034;5.554;2024-03-07T08:44:24;13.95;;;10.02;;
19026;SDS011;9646;52.034;5.554;2024-03-07T08:46:52;13.20;;;10.45;;
19026;SDS011;9646;52.034;5.554;2024-03-07T08:49:19;13.88;;;10.45;;
19026;SDS011;9646;52.034;5.554;2024-03-07T08:51:49;12.32;;;9.35;;
19026;SDS011;9646;52.034;5.554;2024-03-07T08:54:16;16.27;;;10.00;;
19026;SDS011;9646;52.034;5.554;2024-03-07T08:56:45;14.30;;;9.82;;
19026;SDS011;9646;52.034;5.554;2024-03-07T08:59:13;13.45;;;10.27;;
19026;SDS011;9646;52.034;5.554;2024-03-07T09:01:43;11.23;;;8.45;;
19026;SDS011;9646;52.034;5.554;2024-03-07T09:04:10;12.15;;;9.02;;
19026;SDS011;9646;52.034;5.554;2024-03-07T09:06:39;12.23;;;8.75;;
19026;SDS011;9646;52.034;5.554;2024-03-07T09:09:08;12.48;;;8.23;;
19026;SDS011;9646;52.034;5.554;2024-03-07T09:11:35;9.60;;;7.28;;
19026;SDS011;9646;52.034;5.554;2024-03-07T09:14:03;10.52;;;8.30;;
19026;SDS011;9646;52.034;5.554;2024-03-07T09:16:34;13.38;;;9.35;;
19026;SDS011;9646;52.034;5.554;2024-03-07T09:19:01;10.82;;;7.93;;
19026;SDS011;9646;52.034;5.554;2024-03-07T09:21:29;11.48;;;8.35;;
19026;SDS011;9646;52.034;5.554;2024-03-07T09:23:56;10.45;;;7.28;;
19026;SDS011;9646;52.034;5.554;2024-03-07T09:26:24;11.52;;;8.25;;
19026;SDS011;9646;52.034;5.554;2024-03-07T09:28:51;11.68;;;8.27;;
19026;SDS011;9646;52.034;5.554;2024-03-07T09:31:20;12.15;;;8.57;;
19026;SDS011;9646;52.034;5.554;2024-03-07T09:33:47;10.95;;;7.90;;
19026;SDS011;9646;52.034;5.554;2024-03-07T09:36:15;13.18;;;8.07;;
19026;SDS011;9646;52.034;5.554;2024-03-07T09:38:44;10.95;;;8.20;;
19026;SDS011;9646;52.034;5.554;2024-03-07T09:41:11;10.90;;;8.55;;
19026;SDS011;9646;52.034;5.554;2024-03-07T09:43:42;10.07;;;8.07;;
19026;SDS011;9646;52.034;5.554;2024-03-07T09:46:11;11.88;;;7.45;;
19026;SDS011;9646;52.034;5.554;2024-03-07T09:48:39;12.50;;;8.23;;
19026;SDS011;9646;52.034;5.554;2024-03-07T09:51:06;10.05;;;7.65;;
19026;SDS011;9646;52.034;5.554;2024-03-07T09:53:34;10.82;;;7.60;;
19026;SDS011;9646;52.034;5.554;2024-03-07T09:56:04;11.15;;;7.65;;
19026;SDS011;9646;52.034;5.554;2024-03-07T09:58:31;9.70;;;7.15;;
19026;SDS011;9646;52.034;5.554;2024-03-07T10:01:04;9.70;;;7.72;;
19026;SDS011;9646;52.034;5.554;2024-03-07T10:03:37;12.00;;;8.10;;
19026;SDS011;9646;52.034;5.554;2024-03-07T10:06:07;9.32;;;6.68;;
19026;SDS011;9646;52.034;5.554;2024-03-07T10:08:35;11.48;;;8.35;;
19026;SDS011;9646;52.034;5.554;2024-03-07T10:11:02;11.50;;;8.15;;
19026;SDS011;9646;52.034;5.554;2024-03-07T10:13:31;9.70;;;6.93;;
19026;SDS011;9646;52.034;5.554;2024-03-07T10:15:58;9.70;;;7.22;;
19026;SDS011;9646;52.034;5.554;2024-03-07T10:18:27;9.23;;;7.00;;
19026;SDS011;9646;52.034;5.554;2024-03-07T10:20:54;11.63;;;7.47;;
19026;SDS011;9646;52.034;5.554;2024-03-07T10:23:21;8.45;;;6.70;;
19026;SDS011;9646;52.034;5.554;2024-03-07T10:25:49;8.95;;;6.63;;
19026;SDS011;9646;52.034;5.554;2024-03-07T10:28:19;9.85;;;7.55;;
19026;SDS011;9646;52.034;5.554;2024-03-07T10:30:47;10.13;;;7.22;;
19026;SDS011;9646;52.034;5.554;2024-03-07T10:33:15;8.15;;;6.25;;
19026;SDS011;9646;52.034;5.554;2024-03-07T10:35:47;9.38;;;6.45;;
19026;SDS011;9646;52.034;5.554;2024-03-07T10:38:15;10.20;;;7.03;;
19026;SDS011;9646;52.034;5.554;2024-03-07T10:40:44;9.77;;;6.90;;
19026;SDS011;9646;52.034;5.554;2024-03-07T10:43:12;8.65;;;6.53;;
19026;SDS011;9646;52.034;5.554;2024-03-07T10:45:42;9.73;;;6.97;;
19026;SDS011;9646;52.034;5.554;2024-03-07T10:48:11;8.65;;;6.38;;
19026;SDS011;9646;52.034;5.554;2024-03-07T10:50:42;8.57;;;5.72;;
19026;SDS011;9646;52.034;5.554;2024-03-07T10:53:14;11.32;;;7.32;;
19026;SDS011;9646;52.034;5.554;2024-03-07T10:55:46;8.27;;;6.10;;
19026;SDS011;9646;52.034;5.554;2024-03-07T10:58:18;9.70;;;6.93;;
19026;SDS011;9646;52.034;5.554;2024-03-07T11:00:51;12.45;;;8.32;;
19026;SDS011;9646;52.034;5.554;2024-03-07T11:03:19;11.00;;;7.00;;
19026;SDS011;9646;52.034;5.554;2024-03-07T11:05:47;10.15;;;5.95;;
19026;SDS011;9646;52.034;5.554;2024-03-07T11:08:16;12.88;;;6.90;;
19026;SDS011;9646;52.034;5.554;2024-03-07T11:10:44;9.85;;;7.03;;
19026;SDS011;9646;52.034;5.554;2024-03-07T11:13:12;10.15;;;6.93;;
19026;SDS011;9646;52.034;5.554;2024-03-07T11:15:44;9.85;;;6.47;;
19026;SDS011;9646;52.034;5.554;2024-03-07T11:18:12;10.07;;;6.40;;
19026;SDS011;9646;52.034;5.554;2024-03-07T11:20:40;9.40;;;6.97;;
19026;SDS011;9646;52.034;5.554;2024-03-07T11:23:28;9.98;;;7.00;;
19026;SDS011;9646;52.034;5.554;2024-03-07T11:26:01;10.07;;;7.40;;
19026;SDS011;9646;52.034;5.554;2024-03-07T11:28:32;10.48;;;6.82;;
19026;SDS011;9646;52.034;5.554;2024-03-07T11:31:09;9.35;;;6.82;;
19026;SDS011;9646;52.034;5.554;2024-03-07T11:33:39;14.75;;;8.45;;
19026;SDS011;9646;52.034;5.554;2024-03-07T11:36:07;8.48;;;5.57;;
19026;SDS011;9646;52.034;5.554;2024-03-07T11:38:36;10.60;;;6.47;;
19026;SDS011;9646;52.034;5.554;2024-03-07T11:41:03;9.32;;;6.88;;
19026;SDS011;9646;52.034;5.554;2024-03-07T11:43:33;11.23;;;7.28;;
19026;SDS011;9646;52.034;5.554;2024-03-07T11:46:01;11.32;;;8.20;;
19026;SDS011;9646;52.034;5.554;2024-03-07T11:48:28;10.40;;;7.28;;
19026;SDS011;9646;52.034;5.554;2024-03-07T11:50:56;9.85;;;7.30;;
19026;SDS011;9646;52.034;5.554;2024-03-07T11:53:23;9.07;;;6.80;;
19026;SDS011;9646;52.034;5.554;2024-03-07T11:55:53;12.32;;;7.72;;
19026;SDS011;9646;52.034;5.554;2024-03-07T11:58:20;10.02;;;6.80;;
19026;SDS011;9646;52.034;5.554;2024-03-07T12:00:49;10.10;;;7.00;;
19026;SDS011;9646;52.034;5.554;2024-03-07T12:03:17;9.57;;;6.82;;
19026;SDS011;9646;52.034;5.554;2024-03-07T12:05:46;9.52;;;6.80;;
19026;SDS011;9646;52.034;5.554;2024-03-07T12:08:13;12.52;;;7.13;;
19026;SDS011;9646;52.034;5.554;2024-03-07T12:10:41;10.63;;;7.35;;
19026;SDS011;9646;52.034;5.554;2024-03-07T12:13:11;10.82;;;7.32;;
19026;SDS011;9646;52.034;5.554;2024-03-07T12:18:11;10.10;;;6.82;;
19026;SDS011;9646;52.034;5.554;2024-03-07T12:20:40;10.10;;;6.40;;
19026;SDS011;9646;52.034;5.554;2024-03-07T12:23:12;10.73;;;7.05;;
19026;SDS011;9646;52.034;5.554;2024-03-07T12:25:41;8.98;;;6.50;;
19026;SDS011;9646;52.034;5.554;2024-03-07T12:28:08;9.90;;;6.78;;
19026;SDS011;9646;52.034;5.554;2024-03-07T12:30:47;11.40;;;7.65;;
19026;SDS011;9646;52.034;5.554;2024-03-07T12:33:16;9.07;;;6.82;;
19026;SDS011;9646;52.034;5.554;2024-03-07T12:35:43;12.77;;;7.65;;
19026;SDS011;9646;52.034;5.554;2024-03-07T12:38:10;8.95;;;6.47;;
19026;SDS011;9646;52.034;5.554;2024-03-07T12:40:41;11.70;;;6.38;;
19026;SDS011;9646;52.034;5.554;2024-03-07T12:43:17;11.88;;;7.80;;
19026;SDS011;9646;52.034;5.554;2024-03-07T12:45:47;9.85;;;6.45;;
19026;SDS011;9646;52.034;5.554;2024-03-07T12:48:15;11.23;;;7.97;;
19026;SDS011;9646;52.034;5.554;2024-03-07T12:50:44;11.07;;;7.88;;
19026;SDS011;9646;52.034;5.554;2024-03-07T12:53:12;10.13;;;6.82;;
19026;SDS011;9646;52.034;5.554;2024-03-07T12:55:39;9.80;;;5.95;;
19026;SDS011;9646;52.034;5.554;2024-03-07T12:58:08;10.52;;;6.93;;
19026;SDS011;9646;52.034;5.554;2024-03-07T13:00:36;9.50;;;7.00;;
19026;SDS011;9646;52.034;5.554;2024-03-07T13:03:04;9.02;;;6.63;;
19026;SDS011;9646;52.034;5.554;2024-03-07T13:05:31;9.25;;;6.68;;
19026;SDS011;9646;52.034;5.554;2024-03-07T13:07:59;8.48;;;6.30;;
19026;SDS011;9646;52.034;5.554;2024-03-07T13:10:26;11.75;;;7.30;;
19026;SDS011;9646;52.034;5.554;2024-03-07T13:12:53;10.70;;;7.60;;
19026;SDS011;9646;52.034;5.554;2024-03-07T13:15:20;9.30;;;6.47;;
19026;SDS011;9646;52.034;5.554;2024-03-07T13:17:49;9.90;;;6.60;;
19026;SDS011;9646;52.034;5.554;2024-03-07T13:20:20;9.25;;;6.40;;
19026;SDS011;9646;52.034;5.554;2024-03-07T13:22:51;10.05;;;7.28;;
19026;SDS011;9646;52.034;5.554;2024-03-07T13:25:20;9.55;;;6.85;;
19026;SDS011;9646;52.034;5.554;2024-03-07T13:27:51;8.25;;;6.05;;
19026;SDS011;9646;52.034;5.554;2024-03-07T13:30:20;11.98;;;8.30;;
19026;SDS011;9646;52.034;5.554;2024-03-07T13:32:49;8.45;;;5.90;;
19026;SDS011;9646;52.034;5.554;2024-03-07T13:35:20;8.88;;;7.00;;
19026;SDS011;9646;52.034;5.554;2024-03-07T13:37:49;11.55;;;7.90;;
19026;SDS011;9646;52.034;5.554;2024-03-07T13:40:19;8.98;;;5.93;;
19026;SDS011;9646;52.034;5.554;2024-03-07T13:42:50;9.32;;;6.97;;
19026;SDS011;9646;52.034;5.554;2024-03-07T13:45:18;6.95;;;5.25;;
19026;SDS011;9646;52.034;5.554;2024-03-07T13:47:47;11.95;;;8.13;;
19026;SDS011;9646;52.034;5.554;2024-03-07T13:50:14;10.18;;;7.82;;
19026;SDS011;9646;52.034;5.554;2024-03-07T13:52:45;10.13;;;7.45;;
19026;SDS011;9646;52.034;5.554;2024-03-07T13:55:31;7.53;;;6.30;;
19026;SDS011;9646;52.034;5.554;2024-03-07T13:58:00;9.63;;;6.32;;
19026;SDS011;9646;52.034;5.554;2024-03-07T14:00:32;7.38;;;5.85;;
19026;SDS011;9646;52.034;5.554;2024-03-07T14:05:55;12.48;;;8.40;;
19026;SDS011;9646;52.034;5.554;2024-03-07T14:11:37;10.70;;;6.72;;
19026;SDS011;9646;52.034;5.554;2024-03-07T14:14:18;10.38;;;7.88;;
19026;SDS011;9646;52.034;5.554;2024-03-07T14:17:03;10.50;;;7.53;;
19026;SDS011;9646;52.034;5.554;2024-03-07T14:19:51;8.43;;;6.63;;
19026;SDS011;9646;52.034;5.554;2024-03-07T14:22:40;13.02;;;8.13;;
19026;SDS011;9646;52.034;5.554;2024-03-07T14:28:15;8.50;;;6.20;;
19026;SDS011;9646;52.034;5.554;2024-03-07T14:30:45;9.18;;;6.55;;
19026;SDS011;9646;52.034;5.554;2024-03-07T14:33:20;7.90;;;6.07;;
19026;SDS011;9646;52.034;5.554;2024-03-07T14:35:58;8.95;;;6.78;;
19026;SDS011;9646;52.034;5.554;2024-03-07T14:38:37;8.80;;;6.78;;
19026;SDS011;9646;52.034;5.554;2024-03-07T14:41:08;10.57;;;7.40;;
19026;SDS011;9646;52.034;5.554;2024-03-07T14:43:39;12.55;;;9.32;;
19026;SDS011;9646;52.034;5.554;2024-03-07T14:46:07;9.35;;;6.40;;
19026;SDS011;9646;52.034;5.554;2024-03-07T14:48:37;11.32;;;8.02;;
19026;SDS011;9646;52.034;5.554;2024-03-07T14:51:05;10.18;;;7.13;;
19026;SDS011;9646;52.034;5.554;2024-03-07T14:53:34;9.88;;;7.85;;
19026;SDS011;9646;52.034;5.554;2024-03-07T14:56:01;9.98;;;7.30;;
19026;SDS011;9646;52.034;5.554;2024-03-07T14:58:30;10.23;;;7.43;;
19026;SDS011;9646;52.034;5.554;2024-03-07T15:00:58;10.15;;;7.22;;
19026;SDS011;9646;52.034;5.554;2024-03-07T15:03:26;8.23;;;6.25;;
19026;SDS011;9646;52.034;5.554;2024-03-07T15:05:54;9.07;;;6.90;;